Time;durP1;ratioP1;P1;durP2;ratioP2;P2;SDS_P1;SDS_P2;PMS_P1;PMS_P2;Temp;Humidity;BMP_temperature;BMP_pressure;BME280_temperature;BME280_humidity;BME280_pressure;Samples;Min_cycle;Max_cycle;Signal;HPM_P1;HPM_P2
2022/02/11 00:04:24;;;;;;;10.07;2.33;;;;;;;;;;5019690;28;20711;-70
2022/02/11 00:09:17;;;;;;;3.10;1.50;;;;;;;;;;5011391;28;20202;-70
2022/02/11 00:11:42;;;;;;;10.87;1.80;;;;;;;;;;5027362;28;20242;-69
2022/02/11 00:14:08;;;;;;;4.80;1.60;;;;;;;;;;5035021;28;20237;-69
2022/02/11 00:16:34;;;;;;;8.40;1.67;;;;;;;;;;5013313;28;20195;-69
2022/02/11 00:19:00;;;;;;;8.63;1.93;;;;;;;;;;5029598;28;20179;-70
2022/02/11 00:21:29;;;;;;;6.73;1.70;;;;;;;;;;5005257;28;20266;-69
2022/02/11 00:23:54;;;;;;;6.37;1.83;;;;;;;;;;5003229;28;20286;-70
2022/02/11 00:26:20;;;;;;;5.10;2.30;;;;;;;;;;4996251;28;20259;-69
2022/02/11 00:33:58;;;;;;;7.80;1.83;;;;;;;;;;5002064;28;20580;-69
2022/02/11 00:36:29;;;;;;;6.73;1.33;;;;;;;;;;4973481;28;20301;-69
2022/02/11 00:39:27;;;;;;;8.23;1.63;;;;;;;;;;4991851;28;20186;-69
2022/02/11 00:53:22;;;;;;;11.07;2.67;;;;;;;;;;5003094;28;20246;-67
2022/02/11 01:03:52;;;;;;;8.00;2.20;;;;;;;;;;5001989;28;20237;-68
2022/02/11 01:06:15;;;;;;;8.57;2.33;;;;;;;;;;5002298;28;20196;-69
2022/02/11 01:08:41;;;;;;;7.50;2.23;;;;;;;;;;5008845;28;20668;-68
2022/02/11 01:11:11;;;;;;;15.47;4.10;;;;;;;;;;5014910;28;20187;-68
2022/02/11 01:13:36;;;;;;;5.83;2.00;;;;;;;;;;5032386;23;20240;-70
2022/02/11 01:16:07;;;;;;;14.73;3.83;;;;;;;;;;5014692;28;20170;-70
2022/02/11 01:18:33;;;;;;;8.77;2.33;;;;;;;;;;5027638;28;20293;-70
2022/02/11 01:21:03;;;;;;;8.23;2.40;;;;;;;;;;5018229;28;20550;-70
2022/02/11 01:23:47;;;;;;;10.60;2.97;;;;;;;;;;5032223;28;20202;-70
2022/02/11 01:31:36;;;;;;;9.70;2.63;;;;;;;;;;5014856;28;20570;-69
2022/02/11 01:37:03;;;;;;;7.57;2.10;;;;;;;;;;5015856;28;20618;-69
2022/02/11 01:53:02;;;;;;;4.60;2.30;;;;;;;;;;4986607;28;20210;-69
2022/02/11 02:21:56;;;;;;;9.73;2.43;;;;;;;;;;5015245;28;20229;-69
2022/02/11 02:58:47;;;;;;;14.10;2.27;;;;;;;;;;5011833;28;20212;-71
2022/02/11 03:01:44;;;;;;;8.37;1.97;;;;;;;;;;5024458;28;20182;-70
2022/02/11 03:53:23;;;;;;;17.07;3.87;;;;;;;;;;5015722;28;20194;-68
2022/02/11 04:55:06;;;;;;;14.53;2.83;;;;;;;;;;5012531;28;20282;-72
2022/02/11 05:00:15;;;;;;;10.43;2.60;;;;;;;;;;5029310;28;20248;-71
2022/02/11 05:02:45;;;;;;;14.93;3.50;;;;;;;;;;5024580;28;20171;-71
2022/02/11 05:05:11;;;;;;;10.10;3.13;;;;;;;;;;5008416;28;20209;-71
2022/02/11 05:07:36;;;;;;;6.50;3.27;;;;;;;;;;5017142;28;20558;-71
2022/02/11 05:10:02;;;;;;;21.83;4.70;;;;;;;;;;5023570;28;20265;-71
2022/02/11 05:12:27;;;;;;;7.47;1.87;;;;;;;;;;5031256;28;20186;-71
2022/02/11 05:14:53;;;;;;;12.23;1.80;;;;;;;;;;5013342;28;20566;-71
2022/02/11 05:17:18;;;;;;;8.53;1.77;;;;;;;;;;5027729;28;20209;-71
2022/02/11 05:19:43;;;;;;;8.17;2.03;;;;;;;;;;5028510;28;20943;-71
2022/02/11 05:22:08;;;;;;;9.27;1.97;;;;;;;;;;5028574;28;20175;-71
2022/02/11 05:24:33;;;;;;;11.83;1.93;;;;;;;;;;5012772;28;20705;-71
2022/02/11 05:26:58;;;;;;;6.87;1.60;;;;;;;;;;5008056;28;20190;-70
2022/02/11 05:29:24;;;;;;;12.17;2.57;;;;;;;;;;5020347;28;20182;-71
2022/02/11 05:31:50;;;;;;;15.17;2.60;;;;;;;;;;5020020;28;20183;-71
2022/02/11 05:34:15;;;;;;;9.77;2.20;;;;;;;;;;5009932;28;20553;-71
2022/02/11 05:36:40;;;;;;;7.83;2.30;;;;;;;;;;5022034;28;20193;-71
2022/02/11 05:39:06;;;;;;;12.83;3.33;;;;;;;;;;5019545;28;20233;-70
2022/02/11 05:41:31;;;;;;;14.60;2.37;;;;;;;;;;5006699;28;20472;-69
2022/02/11 05:43:56;;;;;;;10.97;2.40;;;;;;;;;;5017998;28;20199;-70
2022/02/11 05:46:22;;;;;;;14.50;2.50;;;;;;;;;;5008197;28;20179;-70
2022/02/11 05:48:48;;;;;;;10.33;2.07;;;;;;;;;;5015780;28;20262;-70
2022/02/11 05:51:13;;;;;;;5.23;1.47;;;;;;;;;;5027826;28;20198;-70
2022/02/11 05:53:38;;;;;;;6.20;1.67;;;;;;;;;;5029480;28;20201;-69
2022/02/11 05:56:04;;;;;;;5.20;1.50;;;;;;;;;;5012563;28;20198;-71
2022/02/11 05:58:29;;;;;;;7.03;1.40;;;;;;;;;;5026492;28;20229;-69
2022/02/11 06:00:55;;;;;;;10.07;1.73;;;;;;;;;;5015052;28;20246;-69
2022/02/11 06:03:20;;;;;;;11.47;2.53;;;;;;;;;;5031171;28;20194;-68
2022/02/11 06:05:45;;;;;;;13.07;1.70;;;;;;;;;;5033085;28;20183;-71
2022/02/11 06:08:11;;;;;;;8.20;1.60;;;;;;;;;;5027366;28;20186;-71
2022/02/11 06:10:36;;;;;;;7.23;1.83;;;;;;;;;;5033008;28;20178;-70
2022/02/11 06:13:02;;;;;;;7.60;2.47;;;;;;;;;;5029480;28;20344;-69
2022/02/11 06:15:27;;;;;;;9.00;2.07;;;;;;;;;;5034180;28;20200;-70
2022/02/11 06:17:52;;;;;;;25.53;2.33;;;;;;;;;;5032729;28;20210;-70
2022/02/11 06:20:17;;;;;;;8.43;2.40;;;;;;;;;;5025656;28;20206;-70
2022/02/11 06:22:44;;;;;;;12.63;2.00;;;;;;;;;;5021819;28;20206;-71
2022/02/11 06:25:09;;;;;;;19.03;3.20;;;;;;;;;;5027834;28;20198;-69
2022/02/11 06:27:34;;;;;;;12.10;2.60;;;;;;;;;;5026276;28;20178;-69
2022/02/11 06:30:00;;;;;;;11.43;2.43;;;;;;;;;;5022191;28;20182;-69
2022/02/11 06:32:25;;;;;;;10.00;2.77;;;;;;;;;;5021757;28;20190;-68
2022/02/11 06:34:54;;;;;;;14.80;2.93;;;;;;;;;;5010318;28;20231;-69
2022/02/11 06:37:19;;;;;;;12.67;3.60;;;;;;;;;;5011176;28;20217;-68
2022/02/11 06:39:44;;;;;;;14.40;3.10;;;;;;;;;;5005877;28;20178;-68
2022/02/11 06:42:09;;;;;;;12.50;2.87;;;;;;;;;;5018554;28;20188;-70
2022/02/11 06:44:34;;;;;;;18.37;3.50;;;;;;;;;;5023206;28;20190;-69
2022/02/11 06:46:59;;;;;;;16.70;3.20;;;;;;;;;;5014369;28;20210;-69
2022/02/11 06:49:25;;;;;;;12.40;3.73;;;;;;;;;;5013639;28;20220;-69
2022/02/11 06:51:52;;;;;;;18.37;3.13;;;;;;;;;;5014828;28;20206;-68
2022/02/11 06:54:17;;;;;;;11.67;2.40;;;;;;;;;;5004424;28;20863;-68
2022/02/11 06:56:43;;;;;;;15.80;2.50;;;;;;;;;;5024177;28;20178;-69
2022/02/11 06:59:08;;;;;;;7.30;1.80;;;;;;;;;;5028018;28;20178;-69
2022/02/11 07:01:33;;;;;;;7.93;1.97;;;;;;;;;;5011324;28;20622;-72
2022/02/11 07:03:58;;;;;;;6.03;1.83;;;;;;;;;;5028694;28;20260;-72
2022/02/11 07:06:24;;;;;;;7.73;1.87;;;;;;;;;;5016575;28;20187;-72
2022/02/11 07:08:49;;;;;;;5.43;1.10;;;;;;;;;;5014200;28;20186;-71
2022/02/11 07:11:14;;;;;;;7.77;1.53;;;;;;;;;;5014960;28;20676;-72
2022/02/11 07:13:39;;;;;;;7.57;2.20;;;;;;;;;;5015120;28;20348;-72
2022/02/11 07:16:04;;;;;;;7.70;1.53;;;;;;;;;;5011051;28;20171;-72
2022/02/11 07:18:29;;;;;;;7.60;1.60;;;;;;;;;;5012072;28;20608;-72
2022/02/11 07:20:55;;;;;;;5.00;2.03;;;;;;;;;;5014677;28;20281;-72
2022/02/11 07:23:20;;;;;;;3.80;1.30;;;;;;;;;;5010172;28;20202;-71
2022/02/11 07:25:45;;;;;;;7.43;2.03;;;;;;;;;;5013357;28;20554;-72
2022/02/11 07:28:11;;;;;;;8.83;2.17;;;;;;;;;;5016938;28;20183;-72
2022/02/11 07:30:36;;;;;;;8.03;1.70;;;;;;;;;;5011681;28;20186;-72
2022/02/11 07:33:01;;;;;;;5.87;1.70;;;;;;;;;;5014274;28;20194;-72
2022/02/11 07:35:27;;;;;;;6.73;1.10;;;;;;;;;;5002151;28;20182;-72
2022/02/11 07:37:52;;;;;;;4.43;1.73;;;;;;;;;;5023963;28;20210;-71
2022/02/11 07:40:18;;;;;;;5.30;1.43;;;;;;;;;;5017703;28;20190;-71
2022/02/11 07:42:46;;;;;;;3.27;1.03;;;;;;;;;;5005928;28;20684;-71
2022/02/11 07:45:12;;;;;;;5.30;1.30;;;;;;;;;;5030961;28;20668;-71
2022/02/11 07:47:37;;;;;;;7.60;1.63;;;;;;;;;;5032907;28;20185;-72
2022/02/11 07:50:03;;;;;;;5.03;1.50;;;;;;;;;;5026871;28;20186;-69
2022/02/11 07:52:28;;;;;;;6.93;1.73;;;;;;;;;;5007497;28;20182;-72
2022/02/11 07:54:53;;;;;;;6.33;1.30;;;;;;;;;;5017847;28;20217;-72
2022/02/11 07:57:19;;;;;;;7.10;1.60;;;;;;;;;;5029016;28;20230;-69
2022/02/11 07:59:44;;;;;;;13.00;1.77;;;;;;;;;;5015855;28;20229;-70
2022/02/11 08:02:10;;;;;;;15.47;3.70;;;;;;;;;;5023740;28;20175;-71
2022/02/11 08:04:36;;;;;;;11.80;1.97;;;;;;;;;;5012834;28;20195;-71
2022/02/11 08:07:01;;;;;;;15.53;2.97;;;;;;;;;;5015569;28;20187;-71
2022/02/11 08:09:26;;;;;;;9.20;2.57;;;;;;;;;;5019367;28;20186;-71
2022/02/11 08:11:53;;;;;;;13.33;2.33;;;;;;;;;;5015432;28;20622;-71
2022/02/11 08:14:19;;;;;;;11.97;2.73;;;;;;;;;;5017299;28;20301;-69
2022/02/11 08:16:44;;;;;;;10.30;2.50;;;;;;;;;;5030414;28;20562;-70
2022/02/11 08:19:09;;;;;;;11.03;3.20;;;;;;;;;;5027175;28;20237;-69
2022/02/11 08:21:35;;;;;;;14.33;2.43;;;;;;;;;;5011203;28;20206;-71
2022/02/11 08:24:01;;;;;;;17.23;3.00;;;;;;;;;;5024643;28;20647;-71
2022/02/11 08:26:29;;;;;;;15.63;2.60;;;;;;;;;;5031791;28;20183;-69
2022/02/11 08:28:54;;;;;;;12.07;3.27;;;;;;;;;;5033145;28;20235;-69
2022/02/11 08:31:19;;;;;;;11.63;2.20;;;;;;;;;;5027134;28;20186;-69
2022/02/11 08:33:49;;;;;;;10.87;2.53;;;;;;;;;;5032846;28;20641;-69
2022/02/11 08:36:14;;;;;;;18.40;3.27;;;;;;;;;;5028584;28;20193;-69
2022/02/11 08:38:39;;;;;;;11.83;3.00;;;;;;;;;;5031305;28;20202;-70
2022/02/11 08:41:05;;;;;;;14.53;3.23;;;;;;;;;;5032597;28;20202;-70
2022/02/11 08:43:30;;;;;;;12.30;2.87;;;;;;;;;;5014757;28;20282;-69
2022/02/11 08:45:55;;;;;;;11.20;2.83;;;;;;;;;;5033062;28;20566;-69
2022/02/11 08:48:20;;;;;;;13.73;2.67;;;;;;;;;;5014132;28;20251;-69
2022/02/11 08:50:46;;;;;;;11.93;2.90;;;;;;;;;;5032868;28;20182;-69
2022/02/11 08:53:11;;;;;;;11.70;3.07;;;;;;;;;;5032798;28;20179;-69
2022/02/11 08:55:37;;;;;;;13.53;2.97;;;;;;;;;;5032102;28;20193;-69
2022/02/11 08:58:05;;;;;;;13.43;3.27;;;;;;;;;;5032490;28;20242;-69
2022/02/11 09:00:30;;;;;;;13.43;2.57;;;;;;;;;;5032398;28;20220;-69
2022/02/11 09:02:56;;;;;;;14.23;3.77;;;;;;;;;;5032237;28;20182;-69
2022/02/11 09:05:22;;;;;;;11.23;3.50;;;;;;;;;;5032303;28;20177;-69
2022/02/11 09:07:58;;;;;;;13.53;3.27;;;;;;;;;;5032001;28;20174;-69
2022/02/11 09:10:26;;;;;;;13.47;3.07;;;;;;;;;;5031091;28;20186;-69
2022/02/11 09:12:51;;;;;;;10.73;2.63;;;;;;;;;;5027189;28;20175;-69
2022/02/11 09:15:17;;;;;;;12.87;3.13;;;;;;;;;;5020695;28;20267;-71
2022/02/11 09:17:42;;;;;;;11.43;2.30;;;;;;;;;;5026873;28;20202;-69
2022/02/11 09:20:07;;;;;;;16.03;3.47;;;;;;;;;;5021734;28;20198;-70
2022/02/11 09:22:33;;;;;;;9.70;2.87;;;;;;;;;;5014958;28;20170;-69
2022/02/11 09:24:58;;;;;;;15.80;2.60;;;;;;;;;;5015505;28;20234;-69
2022/02/11 09:27:23;;;;;;;13.03;2.60;;;;;;;;;;5012198;28;20182;-68
2022/02/11 09:29:48;;;;;;;15.80;2.70;;;;;;;;;;5009119;28;20179;-69
2022/02/11 09:32:14;;;;;;;11.60;2.33;;;;;;;;;;5017445;28;20264;-68
2022/02/11 09:34:39;;;;;;;9.33;4.17;;;;;;;;;;5018870;28;20203;-70
2022/02/11 09:37:04;;;;;;;13.03;2.93;;;;;;;;;;5019786;28;20695;-71
2022/02/11 09:39:30;;;;;;;8.17;2.87;;;;;;;;;;5028867;28;20186;-71
2022/02/11 09:41:55;;;;;;;10.13;2.70;;;;;;;;;;5026168;28;20178;-71
2022/02/11 09:44:24;;;;;;;19.73;2.07;;;;;;;;;;5015939;28;20692;-69
2022/02/11 09:46:50;;;;;;;12.33;2.60;;;;;;;;;;5019323;28;20581;-71
2022/02/11 09:49:15;;;;;;;14.50;3.70;;;;;;;;;;5019633;28;20213;-71
2022/02/11 09:51:41;;;;;;;5.93;2.10;;;;;;;;;;5014256;28;21029;-71
2022/02/11 09:54:07;;;;;;;9.60;2.73;;;;;;;;;;5003620;28;20221;-71
2022/02/11 09:56:32;;;;;;;10.17;2.47;;;;;;;;;;5007221;28;20224;-69
2022/02/11 09:58:58;;;;;;;11.23;2.50;;;;;;;;;;5018257;28;20267;-69
2022/02/11 10:01:23;;;;;;;22.07;3.07;;;;;;;;;;5030404;28;20199;-69
2022/02/11 10:04:07;;;;;;;11.60;2.93;;;;;;;;;;5031327;28;20274;-69
2022/02/11 10:06:33;;;;;;;13.03;2.27;;;;;;;;;;5026877;28;20215;-69
2022/02/11 10:08:58;;;;;;;10.60;2.47;;;;;;;;;;5011918;28;20187;-69
2022/02/11 10:11:24;;;;;;;7.70;1.73;;;;;;;;;;5027808;28;20174;-70
2022/02/11 10:13:49;;;;;;;9.97;2.10;;;;;;;;;;5018641;28;20202;-70
2022/02/11 10:16:16;;;;;;;9.03;2.10;;;;;;;;;;5013033;28;20273;-70
2022/02/11 10:18:47;;;;;;;6.40;2.23;;;;;;;;;;5028837;28;20198;-70
2022/02/11 10:21:20;;;;;;;10.90;2.67;;;;;;;;;;5031134;28;20193;-70
2022/02/11 10:23:45;;;;;;;7.27;1.77;;;;;;;;;;5017368;28;20239;-71
2022/02/11 10:26:13;;;;;;;8.30;2.20;;;;;;;;;;5016943;28;20222;-70
2022/02/11 10:28:38;;;;;;;8.47;2.30;;;;;;;;;;5029999;28;20178;-70
2022/02/11 10:31:04;;;;;;;11.83;2.37;;;;;;;;;;5031406;28;20170;-70
2022/02/11 10:33:48;;;;;;;11.07;2.40;;;;;;;;;;5011883;28;20588;-69
2022/02/11 10:36:38;;;;;;;11.83;3.00;;;;;;;;;;4994316;28;20183;-69
2022/02/11 10:39:17;;;;;;;11.40;2.77;;;;;;;;;;5018154;28;20253;-70
2022/02/11 10:41:43;;;;;;;9.87;2.83;;;;;;;;;;5028185;28;20309;-69
2022/02/11 10:44:10;;;;;;;10.83;2.50;;;;;;;;;;5020876;28;20255;-70
2022/02/11 10:46:36;;;;;;;17.77;2.93;;;;;;;;;;5013220;28;20187;-70
2022/02/11 10:49:01;;;;;;;10.67;2.50;;;;;;;;;;5024451;28;20194;-70
2022/02/11 10:51:26;;;;;;;10.37;2.40;;;;;;;;;;5030595;28;20308;-70
2022/02/11 10:53:51;;;;;;;11.83;2.00;;;;;;;;;;5030958;28;20687;-69
2022/02/11 10:56:17;;;;;;;9.43;2.37;;;;;;;;;;5018200;28;20179;-70
2022/02/11 10:58:56;;;;;;;10.27;2.60;;;;;;;;;;5013167;28;20213;-70
2022/02/11 11:01:21;;;;;;;14.73;2.70;;;;;;;;;;5028931;28;20184;-70
2022/02/11 11:03:47;;;;;;;16.40;4.70;;;;;;;;;;5030557;28;20194;-70
2022/02/11 11:06:13;;;;;;;11.67;2.77;;;;;;;;;;5016579;28;20316;-70
2022/02/11 11:08:40;;;;;;;5.57;1.90;;;;;;;;;;5018702;28;20186;-70
2022/02/11 11:11:07;;;;;;;5.47;1.80;;;;;;;;;;5019876;28;20178;-69
2022/02/11 11:13:34;;;;;;;4.63;1.60;;;;;;;;;;5014420;28;20255;-70
2022/02/11 11:15:59;;;;;;;5.57;1.40;;;;;;;;;;5030484;28;20201;-69
2022/02/11 11:18:27;;;;;;;8.90;1.57;;;;;;;;;;5022463;28;20221;-71
2022/02/11 11:20:53;;;;;;;5.20;1.40;;;;;;;;;;5005739;28;20182;-71
2022/02/11 11:23:28;;;;;;;7.63;1.70;;;;;;;;;;5018054;28;20672;-70
2022/02/11 11:26:06;;;;;;;9.77;1.93;;;;;;;;;;5023224;28;20272;-70
2022/02/11 11:28:37;;;;;;;9.57;1.60;;;;;;;;;;5020268;28;20186;-70
2022/02/11 11:31:10;;;;;;;9.10;1.60;;;;;;;;;;5010575;28;20486;-71
2022/02/11 11:33:35;;;;;;;9.30;2.97;;;;;;;;;;5034220;28;20268;-70
2022/02/11 11:36:04;;;;;;;9.60;1.67;;;;;;;;;;5030607;28;20273;-70
2022/02/11 11:38:39;;;;;;;4.77;1.50;;;;;;;;;;5014779;28;20201;-70
2022/02/11 11:41:24;;;;;;;5.70;1.97;;;;;;;;;;5020630;28;20658;-70
2022/02/11 11:43:54;;;;;;;4.60;1.33;;;;;;;;;;5018534;28;20301;-69
2022/02/11 11:46:21;;;;;;;8.23;1.80;;;;;;;;;;5013298;28;20178;-70
2022/02/11 11:48:59;;;;;;;8.77;2.03;;;;;;;;;;5026234;28;20644;-70
2022/02/11 11:51:25;;;;;;;7.30;1.87;;;;;;;;;;5023282;28;20239;-70
2022/02/11 11:54:10;;;;;;;10.10;1.73;;;;;;;;;;5031709;28;20758;-70
2022/02/11 11:56:36;;;;;;;6.40;1.50;;;;;;;;;;5027586;28;20219;-70
2022/02/11 11:59:14;;;;;;;6.97;2.17;;;;;;;;;;5034218;28;20748;-70
2022/02/11 12:01:54;;;;;;;5.50;1.20;;;;;;;;;;5027194;28;20658;-70
2022/02/11 12:04:24;;;;;;;6.13;1.10;;;;;;;;;;5031459;28;20199;-70
2022/02/11 12:06:50;;;;;;;4.53;1.40;;;;;;;;;;5015754;28;20273;-69
2022/02/11 12:09:15;;;;;;;5.23;1.20;;;;;;;;;;5016778;28;20690;-70
2022/02/11 12:11:41;;;;;;;4.73;1.20;;;;;;;;;;5015605;28;20190;-70
2022/02/11 12:14:06;;;;;;;9.87;1.50;;;;;;;;;;5012959;28;20218;-70
2022/02/11 12:16:32;;;;;;;5.03;1.27;;;;;;;;;;5021979;28;20559;-70
2022/02/11 12:18:58;;;;;;;3.60;1.07;;;;;;;;;;5032171;28;20899;-70
2022/02/11 12:21:23;;;;;;;3.70;1.90;;;;;;;;;;5031726;28;20220;-70
2022/02/11 12:29:17;;;;;;;4.70;1.27;;;;;;;;;;5023474;28;20201;-70
2022/02/11 12:31:49;;;;;;;4.80;1.33;;;;;;;;;;5033034;28;20182;-70
2022/02/11 12:34:16;;;;;;;9.57;1.53;;;;;;;;;;5024191;28;20205;-70
2022/02/11 12:36:42;;;;;;;9.13;1.23;;;;;;;;;;5002108;28;20189;-71
2022/02/11 12:39:07;;;;;;;4.33;1.00;;;;;;;;;;5027350;28;20206;-68
2022/02/11 12:41:43;;;;;;;8.23;1.27;;;;;;;;;;5027975;28;20171;-68
2022/02/11 12:44:08;;;;;;;8.70;1.93;;;;;;;;;;5021534;28;20187;-71
2022/02/11 12:46:34;;;;;;;4.17;1.73;;;;;;;;;;5026237;28;20185;-70
2022/02/11 12:48:59;;;;;;;9.70;2.30;;;;;;;;;;5025134;28;20182;-70
2022/02/11 12:51:24;;;;;;;5.33;1.57;;;;;;;;;;5019116;28;20194;-70
2022/02/11 12:54:01;;;;;;;5.30;1.43;;;;;;;;;;5004275;28;20282;-70
2022/02/11 12:56:31;;;;;;;11.47;3.47;;;;;;;;;;5032462;28;20220;-70
2022/02/11 12:59:09;;;;;;;9.80;2.17;;;;;;;;;;5018446;28;20234;-70
2022/02/11 13:01:35;;;;;;;8.93;1.83;;;;;;;;;;5027589;28;20185;-70
2022/02/11 13:04:00;;;;;;;5.07;1.77;;;;;;;;;;5026540;28;20206;-70
2022/02/11 13:06:26;;;;;;;11.20;2.43;;;;;;;;;;5021900;28;20182;-70
2022/02/11 13:09:04;;;;;;;11.63;1.80;;;;;;;;;;5014126;28;20182;-68
2022/02/11 13:11:30;;;;;;;7.90;1.80;;;;;;;;;;5030222;28;20259;-69
2022/02/11 13:13:59;;;;;;;11.10;3.03;;;;;;;;;;5043098;22;20608;-69
2022/02/11 13:16:24;;;;;;;10.40;2.27;;;;;;;;;;5035393;28;20227;-70
2022/02/11 13:18:49;;;;;;;8.37;2.10;;;;;;;;;;5045634;28;20209;-69
2022/02/11 13:21:17;;;;;;;4.70;1.57;;;;;;;;;;5030145;28;20253;-68
2022/02/11 13:23:43;;;;;;;8.53;3.37;;;;;;;;;;5042547;28;20646;-69
2022/02/11 13:26:12;;;;;;;9.30;1.80;;;;;;;;;;5033345;28;20595;-69
2022/02/11 13:28:45;;;;;;;9.67;1.83;;;;;;;;;;5045677;28;20198;-68
2022/02/11 13:31:10;;;;;;;8.17;2.30;;;;;;;;;;5041981;28;20183;-69
2022/02/11 13:33:36;;;;;;;21.70;3.03;;;;;;;;;;5039335;28;20689;-70
2022/02/11 13:36:03;;;;;;;10.10;1.80;;;;;;;;;;5049438;28;20181;-69
2022/02/11 13:38:29;;;;;;;9.70;2.07;;;;;;;;;;5036612;28;20725;-69
2022/02/11 13:41:03;;;;;;;9.10;1.80;;;;;;;;;;5039612;28;20210;-69
2022/02/11 13:43:44;;;;;;;9.97;2.10;;;;;;;;;;5036452;28;20778;-68
2022/02/11 13:46:10;;;;;;;12.93;2.17;;;;;;;;;;5047854;28;20180;-69
2022/02/11 13:48:49;;;;;;;5.83;1.67;;;;;;;;;;5046195;28;20181;-69
2022/02/11 13:51:17;;;;;;;6.30;1.70;;;;;;;;;;5046512;28;20192;-69
2022/02/11 13:53:52;;;;;;;7.83;1.93;;;;;;;;;;5031366;28;20205;-69
2022/02/11 13:56:19;;;;;;;8.03;2.20;;;;;;;;;;5048932;28;20239;-68
2022/02/11 13:59:01;;;;;;;7.83;1.97;;;;;;;;;;5047417;28;20193;-69
2022/02/11 14:01:36;;;;;;;7.27;2.53;;;;;;;;;;5027147;28;20227;-69
2022/02/11 14:04:09;;;;;;;6.77;1.53;;;;;;;;;;5123077;27;20927;-69
2022/02/11 14:06:36;;;;;;;10.87;1.93;;;;;;;;;;5096307;27;20604;-68
2022/02/11 14:09:08;;;;;;;8.33;1.43;;;;;;;;;;5108533;27;20182;-70
2022/02/11 14:11:34;;;;;;;4.70;1.03;;;;;;;;;;5117059;28;20167;-69
2022/02/11 14:14:11;;;;;;;3.77;1.60;;;;;;;;;;5114534;28;20692;-69
2022/02/11 14:16:36;;;;;;;10.90;1.90;;;;;;;;;;5121548;22;20666;-70
2022/02/11 14:19:01;;;;;;;9.20;1.60;;;;;;;;;;5103022;28;20183;-70
2022/02/11 14:21:27;;;;;;;9.33;2.07;;;;;;;;;;5106256;28;20180;-70
2022/02/11 14:23:52;;;;;;;8.00;1.73;;;;;;;;;;5106277;28;20260;-69
2022/02/11 14:26:17;;;;;;;7.47;1.40;;;;;;;;;;5091093;28;20572;-68
2022/02/11 14:28:42;;;;;;;6.73;1.40;;;;;;;;;;5128040;28;20159;-69
2022/02/11 14:31:07;;;;;;;7.00;1.60;;;;;;;;;;5123522;28;20615;-68
2022/02/11 14:33:33;;;;;;;6.37;1.40;;;;;;;;;;5127316;28;20638;-69
2022/02/11 14:35:58;;;;;;;5.97;1.10;;;;;;;;;;5125428;28;20178;-69
2022/02/11 14:38:24;;;;;;;8.70;1.60;;;;;;;;;;5125894;28;20204;-70
2022/02/11 14:43:33;;;;;;;6.17;2.40;;;;;;;;;;5121091;28;20209;-70
2022/02/11 14:45:58;;;;;;;5.30;1.50;;;;;;;;;;5125459;28;20187;-69
2022/02/11 14:48:23;;;;;;;7.13;1.37;;;;;;;;;;5126607;28;20175;-70
2022/02/11 14:50:49;;;;;;;7.83;2.30;;;;;;;;;;5122044;28;20183;-68
2022/02/11 14:53:14;;;;;;;6.97;1.87;;;;;;;;;;5125511;28;20202;-68
2022/02/11 14:55:39;;;;;;;6.10;1.43;;;;;;;;;;5107864;28;20195;-69
2022/02/11 14:58:04;;;;;;;6.50;1.80;;;;;;;;;;5125642;28;20222;-69
2022/02/11 15:00:30;;;;;;;5.47;1.37;;;;;;;;;;5123252;28;20695;-69
2022/02/11 15:02:56;;;;;;;7.37;3.07;;;;;;;;;;5123064;28;20672;-69
2022/02/11 15:05:21;;;;;;;3.00;0.93;;;;;;;;;;5124281;28;20202;-69
2022/02/11 15:07:46;;;;;;;4.83;1.23;;;;;;;;;;5120936;27;20210;-68
2022/02/11 15:10:11;;;;;;;6.53;1.20;;;;;;;;;;5113406;28;20175;-71
2022/02/11 15:12:36;;;;;;;5.53;1.23;;;;;;;;;;5121740;28;20171;-69
2022/02/11 15:15:02;;;;;;;7.33;1.40;;;;;;;;;;5108037;28;20179;-69
2022/02/11 15:17:27;;;;;;;8.23;1.70;;;;;;;;;;5105042;28;20672;-69
2022/02/11 15:19:52;;;;;;;9.87;1.53;;;;;;;;;;5108166;28;20738;-70
2022/02/11 15:22:17;;;;;;;6.87;1.33;;;;;;;;;;5106224;28;20203;-69
2022/02/11 15:24:48;;;;;;;7.43;2.13;;;;;;;;;;5089460;28;20284;-68
2022/02/11 15:27:13;;;;;;;5.63;1.83;;;;;;;;;;5107441;28;20709;-68
2022/02/11 15:29:40;;;;;;;5.77;1.73;;;;;;;;;;5106054;28;20207;-70
2022/02/11 15:32:05;;;;;;;8.37;1.97;;;;;;;;;;5113810;28;20675;-70
2022/02/11 15:34:30;;;;;;;6.13;1.87;;;;;;;;;;5106616;28;20187;-70
2022/02/11 15:36:55;;;;;;;6.33;1.50;;;;;;;;;;5107128;28;20203;-71
2022/02/11 15:39:21;;;;;;;5.97;1.70;;;;;;;;;;5106857;28;20644;-70
2022/02/11 15:41:48;;;;;;;6.93;1.60;;;;;;;;;;5111165;28;20179;-70
2022/02/11 15:44:13;;;;;;;3.97;1.23;;;;;;;;;;5093801;28;20203;-70
2022/02/11 15:46:41;;;;;;;10.70;2.30;;;;;;;;;;5087858;28;20668;-69
2022/02/11 15:49:06;;;;;;;10.53;1.73;;;;;;;;;;5106019;28;20194;-69
2022/02/11 15:51:31;;;;;;;11.07;2.33;;;;;;;;;;5111776;28;20175;-70
2022/02/11 15:53:56;;;;;;;11.00;1.87;;;;;;;;;;5102863;28;20219;-70
2022/02/11 15:56:21;;;;;;;4.07;1.80;;;;;;;;;;5107986;28;20286;-68
2022/02/11 15:58:47;;;;;;;9.67;1.70;;;;;;;;;;5112674;28;20233;-70
2022/02/11 16:01:12;;;;;;;9.07;1.77;;;;;;;;;;5103092;28;20190;-67
2022/02/11 16:03:37;;;;;;;7.97;1.80;;;;;;;;;;5107946;28;20619;-68
2022/02/11 16:06:03;;;;;;;5.97;1.47;;;;;;;;;;5110100;28;20172;-67
2022/02/11 16:08:28;;;;;;;7.47;1.63;;;;;;;;;;5113151;28;20168;-70
2022/02/11 16:10:53;;;;;;;8.10;1.73;;;;;;;;;;5085129;28;20205;-69
2022/02/11 16:13:18;;;;;;;8.73;1.90;;;;;;;;;;5096374;28;20199;-70
2022/02/11 16:15:43;;;;;;;7.30;2.30;;;;;;;;;;5107352;28;20260;-67
2022/02/11 16:18:14;;;;;;;8.17;1.90;;;;;;;;;;5111799;28;20211;-69
2022/02/11 16:20:40;;;;;;;5.37;1.50;;;;;;;;;;5089784;28;20165;-70
2022/02/11 16:23:07;;;;;;;9.77;1.90;;;;;;;;;;5109219;28;20210;-69
2022/02/11 16:25:34;;;;;;;5.90;2.03;;;;;;;;;;5103782;28;20172;-70
2022/02/11 16:27:59;;;;;;;5.63;1.87;;;;;;;;;;5108936;28;20195;-69
2022/02/11 16:30:25;;;;;;;6.37;1.73;;;;;;;;;;5104465;28;20232;-69
2022/02/11 16:32:50;;;;;;;6.93;1.60;;;;;;;;;;5088812;28;20262;-69
2022/02/11 16:35:16;;;;;;;8.77;1.83;;;;;;;;;;5101925;28;20179;-70
2022/02/11 16:37:41;;;;;;;6.93;1.73;;;;;;;;;;5112401;28;20359;-69
2022/02/11 16:40:07;;;;;;;12.23;2.40;;;;;;;;;;5108950;28;20191;-69
2022/02/11 16:42:33;;;;;;;7.33;1.70;;;;;;;;;;5083504;28;20195;-69
2022/02/11 16:44:59;;;;;;;8.57;3.03;;;;;;;;;;5105134;28;20565;-69
2022/02/11 16:47:24;;;;;;;5.90;1.77;;;;;;;;;;5111211;28;20636;-69
2022/02/11 16:49:51;;;;;;;10.10;2.23;;;;;;;;;;5108227;28;20667;-69
2022/02/11 16:52:17;;;;;;;7.90;2.20;;;;;;;;;;5106436;28;20187;-70
2022/02/11 16:54:43;;;;;;;7.80;2.30;;;;;;;;;;5108662;28;20184;-69
2022/02/11 16:57:08;;;;;;;7.53;2.83;;;;;;;;;;5106144;28;20200;-70
2022/02/11 16:59:33;;;;;;;9.70;2.50;;;;;;;;;;5106493;28;20546;-69
2022/02/11 17:02:00;;;;;;;11.47;2.83;;;;;;;;;;5108428;28;20567;-70
2022/02/11 17:04:25;;;;;;;9.90;2.67;;;;;;;;;;5085454;28;21004;-70
2022/02/11 17:06:50;;;;;;;11.20;2.40;;;;;;;;;;5107038;28;20282;-69
2022/02/11 17:09:15;;;;;;;11.27;3.83;;;;;;;;;;5106205;28;20558;-69
2022/02/11 17:11:40;;;;;;;7.30;2.80;;;;;;;;;;5106062;28;20262;-69
2022/02/11 17:14:06;;;;;;;8.80;2.83;;;;;;;;;;5085137;28;20206;-69
2022/02/11 17:16:31;;;;;;;10.50;3.20;;;;;;;;;;5090206;28;20207;-69
2022/02/11 17:18:56;;;;;;;13.63;2.90;;;;;;;;;;5106953;28;20190;-69
2022/02/11 17:21:21;;;;;;;6.93;3.07;;;;;;;;;;5105540;28;20236;-70
2022/02/11 17:23:47;;;;;;;11.40;3.33;;;;;;;;;;5108311;28;20199;-69
2022/02/11 17:26:12;;;;;;;13.10;3.20;;;;;;;;;;5107872;28;20248;-69
2022/02/11 17:28:37;;;;;;;11.43;2.87;;;;;;;;;;5109839;28;20167;-69
2022/02/11 17:31:03;;;;;;;9.80;2.77;;;;;;;;;;5091853;28;20188;-69
2022/02/11 17:33:28;;;;;;;7.80;3.07;;;;;;;;;;5110737;28;20180;-69
2022/02/11 17:35:53;;;;;;;14.90;3.73;;;;;;;;;;5108083;28;20194;-70
2022/02/11 17:38:18;;;;;;;10.10;2.53;;;;;;;;;;5101976;28;20214;-69
2022/02/11 17:40:43;;;;;;;6.67;2.33;;;;;;;;;;5088087;28;20727;-69
2022/02/11 17:43:10;;;;;;;9.80;2.27;;;;;;;;;;5104927;28;20678;-67
2022/02/11 17:45:36;;;;;;;7.27;2.60;;;;;;;;;;5089384;28;20570;-68
2022/02/11 17:48:01;;;;;;;8.30;2.30;;;;;;;;;;5108140;28;20195;-67
2022/02/11 17:50:26;;;;;;;9.80;3.00;;;;;;;;;;5106220;28;20192;-68
2022/02/11 17:52:51;;;;;;;12.97;3.97;;;;;;;;;;5105177;28;20206;-68
2022/02/11 17:55:17;;;;;;;10.07;2.57;;;;;;;;;;5104565;28;20190;-68
2022/02/11 17:57:42;;;;;;;11.47;2.83;;;;;;;;;;5109829;28;20672;-67
2022/02/11 18:00:08;;;;;;;16.37;2.80;;;;;;;;;;5103619;28;20663;-68
2022/02/11 18:02:33;;;;;;;10.40;3.27;;;;;;;;;;5108333;28;20191;-68
2022/02/11 18:05:03;;;;;;;8.13;2.87;;;;;;;;;;5109908;28;20266;-68
2022/02/11 18:07:28;;;;;;;9.47;2.50;;;;;;;;;;5110527;28;20702;-68
2022/02/11 18:09:54;;;;;;;4.60;2.27;;;;;;;;;;5110068;28;20171;-69
2022/02/11 18:12:20;;;;;;;12.20;2.50;;;;;;;;;;5091430;28;20183;-68
2022/02/11 18:14:46;;;;;;;5.90;2.47;;;;;;;;;;5088781;28;20218;-67
2022/02/11 18:17:11;;;;;;;9.57;2.80;;;;;;;;;;5093192;28;20293;-68
2022/02/11 18:19:37;;;;;;;8.63;2.00;;;;;;;;;;5110935;28;20301;-68
2022/02/11 18:22:02;;;;;;;6.30;2.33;;;;;;;;;;5104669;28;20525;-68
2022/02/11 18:24:27;;;;;;;8.50;3.17;;;;;;;;;;5109358;28;20210;-68
2022/02/11 18:26:53;;;;;;;7.77;2.87;;;;;;;;;;5110845;28;20270;-69
2022/02/11 18:29:21;;;;;;;7.77;2.80;;;;;;;;;;5102869;28;20183;-68